createdAt,value
2022-11-08T00:00:40.594Z,13.57
2022-11-08T00:03:09.347Z,11.23
2022-11-08T00:05:57.223Z,11.33
2022-11-08T00:08:43.383Z,9.40
2022-11-08T00:11:29.755Z,10.73
2022-11-08T00:14:01.024Z,9.27
2022-11-08T00:16:30.456Z,10.67
2022-11-08T00:18:59.188Z,9.47
2022-11-08T00:21:29.472Z,11.83
2022-11-08T00:23:58.039Z,9.30
2022-11-08T00:26:26.809Z,10.13
2022-11-08T00:28:55.447Z,7.10
2022-11-08T00:31:24.120Z,9.87
2022-11-08T00:33:52.741Z,8.00
2022-11-08T00:36:21.353Z,7.47
2022-11-08T00:38:51.397Z,7.53
2022-11-08T00:41:20.309Z,5.63
2022-11-08T00:43:48.913Z,5.97
2022-11-08T00:46:17.562Z,6.80
2022-11-08T00:48:46.146Z,5.87
2022-11-08T00:51:15.352Z,8.27
2022-11-08T00:53:43.960Z,2.97
2022-11-08T00:56:14.890Z,4.90
2022-11-08T00:58:44.027Z,16.37
2022-11-08T01:01:16.252Z,4.00
2022-11-08T01:03:49.984Z,4.13
2022-11-08T01:06:23.258Z,4.77
2022-11-08T01:08:52.454Z,4.83
2022-11-08T01:11:26.128Z,7.50
2022-11-08T01:13:59.135Z,5.77
2022-11-08T01:16:31.315Z,4.87
2022-11-08T01:19:01.531Z,5.90
2022-11-08T01:21:30.983Z,3.27
2022-11-08T01:23:59.882Z,4.93
2022-11-08T01:26:31.467Z,6.30
2022-11-08T01:29:00.768Z,4.80
2022-11-08T01:31:32.993Z,10.17
2022-11-08T01:34:02.181Z,3.53
2022-11-08T01:36:31.492Z,5.97
2022-11-08T01:39:00.135Z,7.83
2022-11-08T01:41:30.139Z,4.73
2022-11-08T01:44:00.680Z,3.10
2022-11-08T01:46:46.201Z,5.70
2022-11-08T01:49:41.522Z,2.37
2022-11-08T01:52:33.263Z,4.47
2022-11-08T01:55:13.986Z,5.33
2022-11-08T01:57:51.325Z,4.33
2022-11-08T02:00:20.455Z,5.63
2022-11-08T02:02:58.134Z,3.50
2022-11-08T02:05:29.571Z,6.20
2022-11-08T02:08:07.654Z,3.57
2022-11-08T02:10:39.608Z,1.63
2022-11-08T02:13:15.356Z,8.27
2022-11-08T02:15:44.744Z,5.13
2022-11-08T02:18:15.501Z,3.80
2022-11-08T02:20:59.724Z,5.13
2022-11-08T02:23:42.251Z,5.53
2022-11-08T02:26:11.070Z,7.47
2022-11-08T02:28:40.896Z,2.80
2022-11-08T02:31:11.147Z,4.43
2022-11-08T02:33:40.410Z,3.67
2022-11-08T02:36:12.067Z,5.17
2022-11-08T02:38:47.100Z,4.03
2022-11-08T02:41:16.607Z,2.60
2022-11-08T02:43:45.313Z,6.77
2022-11-08T02:46:14.103Z,5.03
2022-11-08T02:48:42.714Z,4.30
2022-11-08T02:51:11.352Z,3.17
2022-11-08T02:53:39.900Z,7.47
2022-11-08T02:56:10.160Z,5.80
2022-11-08T02:58:38.989Z,4.73
2022-11-08T03:01:07.933Z,5.63
2022-11-08T03:03:36.584Z,3.63
2022-11-08T03:06:05.668Z,5.10
2022-11-08T03:08:34.269Z,3.57
2022-11-08T03:11:02.927Z,8.27
2022-11-08T03:13:33.066Z,4.50
2022-11-08T03:16:04.993Z,3.93
2022-11-08T03:18:33.731Z,3.40
2022-11-08T03:21:02.695Z,3.83
2022-11-08T03:23:32.512Z,3.73
2022-11-08T03:26:03.725Z,3.07
2022-11-08T03:28:34.526Z,4.83
2022-11-08T03:31:03.176Z,5.97
2022-11-08T03:33:31.874Z,3.30
2022-11-08T03:36:00.496Z,4.60
2022-11-08T03:38:29.202Z,3.30
2022-11-08T03:40:57.867Z,6.27
2022-11-08T03:43:27.869Z,3.00
2022-11-08T03:45:58.045Z,4.17
2022-11-08T03:48:26.689Z,4.67
2022-11-08T03:50:55.329Z,4.90
2022-11-08T03:53:23.910Z,3.67
2022-11-08T03:55:52.529Z,5.07
2022-11-08T03:58:21.436Z,6.20
2022-11-08T04:00:50.312Z,7.07
2022-11-08T04:03:20.443Z,6.47
2022-11-08T04:05:49.152Z,5.57
2022-11-08T04:08:18.047Z,4.03
2022-11-08T04:10:46.924Z,4.50
2022-11-08T04:13:32.794Z,4.40
2022-11-08T04:16:01.600Z,2.67
2022-11-08T04:18:49.038Z,4.30
2022-11-08T04:21:21.932Z,3.40
2022-11-08T04:23:53.520Z,4.80
2022-11-08T04:26:24.482Z,4.20
2022-11-08T04:28:53.235Z,3.77
2022-11-08T04:31:21.947Z,5.33
2022-11-08T04:33:52.219Z,3.40
2022-11-08T04:36:21.022Z,2.63
2022-11-08T04:38:50.666Z,7.10
2022-11-08T04:41:21.850Z,2.90
2022-11-08T04:43:51.921Z,1.73
2022-11-08T04:46:24.349Z,4.23
2022-11-08T04:48:57.097Z,2.97
2022-11-08T04:51:28.098Z,3.70
2022-11-08T04:53:58.778Z,4.20
2022-11-08T04:56:29.694Z,4.43
2022-11-08T04:59:00.953Z,2.63
2022-11-08T05:01:32.358Z,7.00
2022-11-08T05:04:02.491Z,5.53
2022-11-08T05:06:32.973Z,5.50
2022-11-08T05:09:02.043Z,3.30
2022-11-08T05:11:31.987Z,2.30
2022-11-08T05:14:00.675Z,4.53
2022-11-08T05:16:31.968Z,3.53
2022-11-08T05:19:02.825Z,8.20
2022-11-08T05:21:49.660Z,3.93
2022-11-08T05:24:19.623Z,5.67
2022-11-08T05:26:50.358Z,4.87
2022-11-08T05:29:19.815Z,6.67
2022-11-08T05:34:31.431Z,3.17
2022-11-08T05:37:00.009Z,8.13
2022-11-08T05:39:32.071Z,4.10
2022-11-08T05:42:01.248Z,4.20
2022-11-08T05:44:30.004Z,5.87
2022-11-08T05:46:58.663Z,4.97
2022-11-08T05:49:27.292Z,8.80
2022-11-08T05:51:57.369Z,4.80
2022-11-08T05:54:26.226Z,4.97
2022-11-08T05:56:56.029Z,4.20
2022-11-08T05:59:31.836Z,5.07
2022-11-08T06:02:00.648Z,4.63
2022-11-08T06:04:29.538Z,5.77
2022-11-08T06:06:59.474Z,6.80
2022-11-08T06:09:28.186Z,5.30
2022-11-08T06:11:56.997Z,6.87
2022-11-08T06:14:26.120Z,4.93
2022-11-08T06:16:54.938Z,4.70
2022-11-08T06:19:23.859Z,4.67
2022-11-08T06:21:52.522Z,9.90
2022-11-08T06:24:22.646Z,5.50
2022-11-08T06:26:51.476Z,7.57
2022-11-08T06:29:20.428Z,8.07
2022-11-08T06:31:49.113Z,5.60
2022-11-08T06:34:17.926Z,6.23
2022-11-08T06:36:46.554Z,6.37
2022-11-08T06:39:15.250Z,5.93
2022-11-08T06:41:45.280Z,6.47
2022-11-08T06:44:13.852Z,8.53
2022-11-08T06:46:42.432Z,7.70
2022-11-08T06:49:11.132Z,6.33
2022-11-08T06:51:39.820Z,6.23
2022-11-08T06:54:17.543Z,7.90
2022-11-08T06:56:48.397Z,5.23
2022-11-08T06:59:17.066Z,7.33
2022-11-08T07:01:46.110Z,6.80
2022-11-08T07:04:14.810Z,8.90
2022-11-08T07:06:43.454Z,7.93
2022-11-08T07:09:12.501Z,8.77
2022-11-08T07:11:41.078Z,7.77
2022-11-08T07:14:11.052Z,6.10
2022-11-08T07:16:39.623Z,9.90
2022-11-08T07:19:08.205Z,7.17
2022-11-08T07:21:36.773Z,9.00
2022-11-08T07:24:05.714Z,6.80
2022-11-08T07:26:34.325Z,6.63
2022-11-08T07:29:02.911Z,11.37
2022-11-08T07:31:32.948Z,7.40
2022-11-08T07:34:01.581Z,8.03
2022-11-08T07:36:30.135Z,10.87
2022-11-08T07:39:02.413Z,7.13
2022-11-08T07:41:34.012Z,12.07
2022-11-08T07:44:02.685Z,15.70
2022-11-08T07:46:32.973Z,19.63
2022-11-08T07:49:01.522Z,10.37
2022-11-08T07:51:30.104Z,18.70
2022-11-08T07:54:02.818Z,16.03
2022-11-08T07:56:32.066Z,12.90
2022-11-08T07:59:00.664Z,10.17
2022-11-08T08:01:29.396Z,11.90
2022-11-08T08:04:02.029Z,8.47
2022-11-08T08:06:30.615Z,11.37
2022-11-08T08:08:59.199Z,11.93
2022-11-08T08:11:33.292Z,8.27
2022-11-08T08:14:02.333Z,9.63
2022-11-08T08:16:30.927Z,8.40
2022-11-08T08:18:59.565Z,9.83
2022-11-08T08:21:29.661Z,8.53
2022-11-08T08:23:58.321Z,9.73
2022-11-08T08:26:26.957Z,12.47
2022-11-08T08:28:55.724Z,8.27
2022-11-08T08:31:24.340Z,5.43
2022-11-08T08:33:52.929Z,11.43
2022-11-08T08:36:21.561Z,6.90
2022-11-08T08:38:51.524Z,5.60
2022-11-08T08:41:20.229Z,8.13
2022-11-08T08:43:48.820Z,6.07
2022-11-08T08:46:17.505Z,7.83
2022-11-08T08:48:46.256Z,7.60
2022-11-08T08:51:14.798Z,7.70
2022-11-08T08:53:43.372Z,10.00
2022-11-08T08:56:13.373Z,8.53
2022-11-08T08:58:42.336Z,5.20
2022-11-08T09:04:00.413Z,9.27
2022-11-08T09:06:29.008Z,7.20
2022-11-08T09:08:57.558Z,8.17
2022-11-08T09:11:27.625Z,5.97
2022-11-08T09:13:56.401Z,7.63
2022-11-08T09:16:24.979Z,6.67
2022-11-08T09:18:53.609Z,9.80
2022-11-08T09:21:22.429Z,10.70
2022-11-08T09:23:51.038Z,9.17
2022-11-08T09:26:19.635Z,11.10
2022-11-08T09:28:49.651Z,9.40
2022-11-08T09:31:18.416Z,6.53
2022-11-08T09:33:50.760Z,8.63
2022-11-08T09:36:19.466Z,7.87
2022-11-08T09:38:48.112Z,9.37
2022-11-08T09:41:55.935Z,7.37
2022-11-08T09:44:55.498Z,9.00
2022-11-08T09:47:30.048Z,7.53
2022-11-08T09:50:14.045Z,9.10
2022-11-08T09:52:45.950Z,6.23
2022-11-08T09:55:28.981Z,5.40
2022-11-08T09:58:20.362Z,4.03
2022-11-08T10:00:53.276Z,6.43
2022-11-08T10:03:25.783Z,5.90
2022-11-08T10:06:21.998Z,3.40
2022-11-08T10:09:01.493Z,5.97
2022-11-08T10:12:03.093Z,2.63
2022-11-08T10:14:54.079Z,4.53
2022-11-08T10:17:51.734Z,5.67
2022-11-08T10:20:35.695Z,6.30
2022-11-08T10:23:21.634Z,7.40
2022-11-08T10:25:57.201Z,6.07
2022-11-08T10:28:35.597Z,4.80
2022-11-08T10:31:05.456Z,3.83
2022-11-08T10:33:43.781Z,7.43
2022-11-08T10:36:21.190Z,6.60
2022-11-08T10:39:03.375Z,3.90
2022-11-08T10:41:45.312Z,4.30
2022-11-08T10:44:19.900Z,2.93
2022-11-08T10:46:53.955Z,2.90
2022-11-08T10:49:27.729Z,3.13
2022-11-08T10:51:59.306Z,3.67
2022-11-08T10:54:46.487Z,2.97
2022-11-08T10:57:17.995Z,5.97
2022-11-08T10:59:48.081Z,6.47
2022-11-08T11:02:28.959Z,4.83
2022-11-08T11:05:28.581Z,2.33
2022-11-08T11:08:06.046Z,7.23
2022-11-08T11:10:38.250Z,5.23
2022-11-08T11:13:12.893Z,2.77
2022-11-08T11:15:48.805Z,3.83
2022-11-08T11:18:37.694Z,4.07
2022-11-08T11:21:14.906Z,6.53
2022-11-08T11:23:48.184Z,5.33
2022-11-08T11:26:32.365Z,9.87
2022-11-08T11:29:18.265Z,7.23
2022-11-08T11:31:50.917Z,4.20
2022-11-08T11:34:53.967Z,4.13
2022-11-08T11:37:40.167Z,20.20
2022-11-08T11:40:20.928Z,7.00
2022-11-08T11:43:03.185Z,4.63
2022-11-08T11:45:41.930Z,6.33
2022-11-08T11:48:18.663Z,5.17
2022-11-08T11:50:49.653Z,2.63
2022-11-08T11:53:23.997Z,4.30
2022-11-08T11:56:27.231Z,12.57
2022-11-08T11:59:33.318Z,6.00
2022-11-08T12:02:38.518Z,6.40
2022-11-08T12:05:49.908Z,4.73
2022-11-08T12:08:51.055Z,13.33
2022-11-08T12:11:50.271Z,4.13
2022-11-08T12:14:50.197Z,5.97
2022-11-08T12:17:59.673Z,6.43
2022-11-08T12:20:48.388Z,6.20
2022-11-08T12:24:02.042Z,6.80
2022-11-08T12:26:38.480Z,6.70
2022-11-08T12:29:26.008Z,5.50
2022-11-08T12:32:23.946Z,4.90
2022-11-08T12:35:19.737Z,5.40
2022-11-08T12:38:10.496Z,2.60
2022-11-08T12:40:53.050Z,6.17
2022-11-08T12:43:51.126Z,4.10
2022-11-08T12:46:22.900Z,5.67
2022-11-08T12:49:19.771Z,5.87
2022-11-08T12:52:06.543Z,5.60
2022-11-08T12:54:40.825Z,6.00
2022-11-08T12:57:17.781Z,7.27
2022-11-08T12:59:53.152Z,3.73
2022-11-08T13:02:27.817Z,5.17
2022-11-08T13:05:03.794Z,3.77
2022-11-08T13:07:51.723Z,3.90
2022-11-08T13:10:34.284Z,2.60
2022-11-08T13:13:26.148Z,7.30
2022-11-08T13:16:15.866Z,5.50
2022-11-08T13:18:50.856Z,3.97
2022-11-08T13:21:43.303Z,6.23
2022-11-08T13:24:45.694Z,6.37
2022-11-08T13:27:42.845Z,3.63
2022-11-08T13:30:41.032Z,4.37
2022-11-08T13:33:23.072Z,4.50
2022-11-08T13:36:10.981Z,4.83
2022-11-08T13:38:56.144Z,4.53
2022-11-08T13:41:27.132Z,5.37
2022-11-08T13:43:57.030Z,4.77
2022-11-08T13:46:50.001Z,4.13
2022-11-08T13:49:24.308Z,7.50
2022-11-08T13:52:45.832Z,4.83
2022-11-08T13:55:49.259Z,3.13
2022-11-08T13:58:37.185Z,5.20
2022-11-08T14:01:08.879Z,3.30
2022-11-08T14:03:57.709Z,4.33
2022-11-08T14:06:36.645Z,3.00
2022-11-08T14:09:33.192Z,4.20
2022-11-08T14:12:13.174Z,5.30
2022-11-08T14:14:55.996Z,2.70
2022-11-08T14:17:46.169Z,4.60
2022-11-08T14:20:32.510Z,5.47
2022-11-08T14:23:16.250Z,5.47
2022-11-08T14:25:52.422Z,5.33
2022-11-08T14:28:27.963Z,7.13
2022-11-08T14:30:57.664Z,5.40
2022-11-08T14:33:29.734Z,3.70
2022-11-08T14:36:02.851Z,5.83
2022-11-08T14:38:35.412Z,3.10
2022-11-08T14:41:08.509Z,5.77
2022-11-08T14:43:46.323Z,5.83
2022-11-08T14:46:21.836Z,6.73
2022-11-08T14:48:54.168Z,10.40
2022-11-08T14:51:23.278Z,5.57
2022-11-08T14:53:53.749Z,7.60
2022-11-08T14:56:26.225Z,9.13
2022-11-08T14:58:57.539Z,9.63
2022-11-08T15:01:29.062Z,17.17
2022-11-08T15:04:01.167Z,13.00
2022-11-08T15:06:37.111Z,10.07
2022-11-08T15:09:08.332Z,10.67
2022-11-08T15:11:43.241Z,10.10
2022-11-08T15:14:19.843Z,8.40
2022-11-08T15:16:51.460Z,8.80
2022-11-08T15:19:31.069Z,5.67
2022-11-08T15:22:01.780Z,7.03
2022-11-08T15:24:39.783Z,8.47
2022-11-08T15:27:17.904Z,9.83
2022-11-08T15:29:53.075Z,11.53
2022-11-08T15:32:23.742Z,7.10
2022-11-08T15:34:57.168Z,6.17
2022-11-08T15:37:35.334Z,5.93
2022-11-08T15:40:08.715Z,6.60
2022-11-08T15:42:47.835Z,5.70
2022-11-08T15:45:27.041Z,5.97
2022-11-08T15:48:11.320Z,7.67
2022-11-08T15:50:40.024Z,8.37
2022-11-08T15:53:09.265Z,9.07
2022-11-08T15:55:48.820Z,10.50
2022-11-08T15:58:29.123Z,14.13
2022-11-08T16:01:00.205Z,13.20
2022-11-08T16:03:30.048Z,16.13
2022-11-08T16:05:59.247Z,17.00
2022-11-08T16:08:28.375Z,20.90
2022-11-08T16:11:02.051Z,23.70
2022-11-08T16:13:36.244Z,23.73
2022-11-08T16:16:12.593Z,38.00
2022-11-08T16:18:43.012Z,39.93
2022-11-08T16:21:13.397Z,43.27
2022-11-08T16:23:43.240Z,42.80
2022-11-08T16:26:17.845Z,40.80
2022-11-08T16:28:48.435Z,28.50
2022-11-08T16:31:19.271Z,32.13
2022-11-08T16:33:48.522Z,28.87
2022-11-08T16:36:21.977Z,21.93
2022-11-08T16:38:54.025Z,21.40
2022-11-08T16:41:24.914Z,15.20
2022-11-08T16:43:56.546Z,15.97
2022-11-08T16:46:26.195Z,12.03
2022-11-08T16:49:00.329Z,12.93
2022-11-08T16:51:30.597Z,14.43
2022-11-08T16:53:59.736Z,14.03
2022-11-08T16:56:29.123Z,13.37
2022-11-08T16:58:59.998Z,22.87
2022-11-08T17:01:35.673Z,20.13
2022-11-08T17:04:04.641Z,20.20
2022-11-08T17:06:33.419Z,20.60
2022-11-08T17:09:02.549Z,16.67
2022-11-08T17:11:31.257Z,17.30
2022-11-08T17:14:02.223Z,15.80
2022-11-08T17:16:31.379Z,13.47
2022-11-08T17:19:00.004Z,21.77
2022-11-08T17:21:45.671Z,26.20
2022-11-08T17:24:21.148Z,29.10
2022-11-08T17:26:51.635Z,25.30
2022-11-08T17:29:22.041Z,23.30
2022-11-08T17:31:51.158Z,16.50
2022-11-08T17:34:20.111Z,16.77
2022-11-08T17:36:52.692Z,18.83
2022-11-08T17:39:21.530Z,20.63
2022-11-08T17:41:50.302Z,16.13
2022-11-08T17:44:19.365Z,15.93
2022-11-08T17:46:50.465Z,10.17
2022-11-08T17:49:19.929Z,12.67
2022-11-08T17:51:49.239Z,9.87
2022-11-08T17:54:19.200Z,12.80
2022-11-08T17:56:48.001Z,14.13
2022-11-08T17:59:17.234Z,17.40
2022-11-08T18:01:46.063Z,16.93
2022-11-08T18:04:17.121Z,15.80
2022-11-08T18:06:46.178Z,19.80
2022-11-08T18:09:15.406Z,22.37
2022-11-08T18:11:47.904Z,22.47
2022-11-08T18:14:17.695Z,17.37
2022-11-08T18:16:49.351Z,15.30
2022-11-08T18:19:20.249Z,16.50
2022-11-08T18:21:50.515Z,21.23
2022-11-08T18:24:51.394Z,17.57
2022-11-08T18:27:20.547Z,15.80
2022-11-08T18:31:10.778Z,12.93
2022-11-08T18:34:33.071Z,14.03
2022-11-08T18:37:03.956Z,13.10
2022-11-08T18:39:34.055Z,16.57
2022-11-08T18:42:02.848Z,14.43
2022-11-08T18:44:31.621Z,16.23
2022-11-08T18:47:14.049Z,14.60
2022-11-08T18:49:59.683Z,15.53
2022-11-08T18:52:28.964Z,15.67
2022-11-08T18:54:58.078Z,14.63
2022-11-08T18:57:26.855Z,14.47
2022-11-08T19:00:00.667Z,15.93
2022-11-08T19:02:43.387Z,21.77
2022-11-08T19:05:23.906Z,24.17
2022-11-08T19:07:53.358Z,20.60
2022-11-08T19:10:24.022Z,15.70
2022-11-08T19:12:53.360Z,17.23
2022-11-08T19:15:27.320Z,13.70
2022-11-08T19:17:56.340Z,14.97
2022-11-08T19:20:30.504Z,19.17
2022-11-08T19:22:59.330Z,17.87
2022-11-08T19:25:34.074Z,16.10
2022-11-08T19:28:04.055Z,16.13
2022-11-08T19:30:32.867Z,15.83
2022-11-08T19:33:02.708Z,15.33
2022-11-08T19:35:33.182Z,16.50
2022-11-08T19:38:02.365Z,20.20
2022-11-08T19:40:32.731Z,17.83
2022-11-08T19:43:01.644Z,16.40
2022-11-08T19:45:30.533Z,16.43
2022-11-08T19:48:21.480Z,18.67
2022-11-08T19:50:51.879Z,15.43
2022-11-08T19:53:20.739Z,13.23
2022-11-08T19:55:59.800Z,14.13
2022-11-08T19:58:42.171Z,15.97
2022-11-08T20:01:15.181Z,12.50
2022-11-08T20:04:06.636Z,11.53
2022-11-08T20:07:30.014Z,14.43
2022-11-08T20:09:59.077Z,11.13
2022-11-08T20:12:28.046Z,14.33
2022-11-08T20:14:58.231Z,11.00
2022-11-08T20:17:27.283Z,11.10
2022-11-08T20:19:58.058Z,10.07
2022-11-08T20:22:27.486Z,11.77
2022-11-08T20:24:58.110Z,9.40
2022-11-08T20:27:27.358Z,9.17
2022-11-08T20:29:56.273Z,12.87
2022-11-08T20:32:25.210Z,18.13
2022-11-08T20:34:55.265Z,10.13
2022-11-08T20:37:26.812Z,13.10
2022-11-08T20:39:57.381Z,17.00
2022-11-08T20:42:29.405Z,11.93
2022-11-08T20:44:59.363Z,10.60
2022-11-08T20:47:28.345Z,7.47
2022-11-08T20:49:57.324Z,10.70
2022-11-08T20:52:27.131Z,6.30
2022-11-08T20:54:57.477Z,8.93
2022-11-08T20:57:26.369Z,4.07
2022-11-08T21:00:06.977Z,4.83
2022-11-08T21:02:41.435Z,6.50
2022-11-08T21:05:13.474Z,5.77
2022-11-08T21:10:47.801Z,6.20
2022-11-08T21:13:18.015Z,6.37
2022-11-08T21:15:47.418Z,8.43
2022-11-08T21:18:18.450Z,9.43
2022-11-08T21:20:48.534Z,8.10
2022-11-08T21:23:18.279Z,6.07
2022-11-08T21:25:52.190Z,5.70
2022-11-08T21:28:21.147Z,5.93
2022-11-08T21:30:51.096Z,6.10
2022-11-08T21:33:20.152Z,4.30
2022-11-08T21:35:51.150Z,8.20
2022-11-08T21:38:21.329Z,4.83
2022-11-08T21:40:52.409Z,4.80
2022-11-08T21:43:22.591Z,4.77
2022-11-08T21:45:51.366Z,3.23
2022-11-08T21:48:20.520Z,6.60
2022-11-08T21:50:49.629Z,5.23
2022-11-08T21:53:18.344Z,6.70
2022-11-08T21:55:58.611Z,4.97
2022-11-08T21:58:27.437Z,4.17
2022-11-08T22:00:56.211Z,6.10
2022-11-08T22:03:25.014Z,7.67
2022-11-08T22:05:53.660Z,5.20
2022-11-08T22:08:22.319Z,5.37
2022-11-08T22:10:51.030Z,3.30
2022-11-08T22:13:21.567Z,4.43
2022-11-08T22:15:50.547Z,4.20
2022-11-08T22:18:30.774Z,4.07
2022-11-08T22:21:25.855Z,5.20
2022-11-08T22:23:54.553Z,3.57
2022-11-08T22:26:23.272Z,5.37
2022-11-08T22:28:53.400Z,8.20
2022-11-08T22:31:22.246Z,6.00
2022-11-08T22:33:51.091Z,4.90
2022-11-08T22:36:20.387Z,6.53
2022-11-08T22:38:49.245Z,5.93
2022-11-08T22:41:19.104Z,5.03
2022-11-08T22:43:49.844Z,5.50
2022-11-08T22:46:20.565Z,5.27
2022-11-08T22:48:49.499Z,5.20
2022-11-08T22:51:18.652Z,5.70
2022-11-08T22:53:47.515Z,5.43
2022-11-08T22:56:16.167Z,5.50
2022-11-08T22:58:44.864Z,6.57
2022-11-08T23:01:16.036Z,4.57
2022-11-08T23:03:48.998Z,4.93
2022-11-08T23:06:17.759Z,5.37
2022-11-08T23:08:48.989Z,6.93
2022-11-08T23:11:35.371Z,5.10
2022-11-08T23:14:22.016Z,3.90
2022-11-08T23:16:50.739Z,7.33
2022-11-08T23:19:41.896Z,6.90
2022-11-08T23:22:32.869Z,3.40
2022-11-08T23:25:01.942Z,4.73
2022-11-08T23:27:47.776Z,4.53
2022-11-08T23:30:37.365Z,4.70
2022-11-08T23:33:07.117Z,2.73
2022-11-08T23:35:37.402Z,4.07
2022-11-08T23:38:06.178Z,3.47
2022-11-08T23:40:52.353Z,3.20
2022-11-08T23:43:38.939Z,6.23
2022-11-08T23:46:10.818Z,5.57
2022-11-08T23:48:41.064Z,4.67
2022-11-08T23:51:11.227Z,5.77
2022-11-08T23:53:40.297Z,3.23
2022-11-08T23:56:09.301Z,5.10
2022-11-08T23:58:38.006Z,3.27
